高雄國際航空站 - 塔台/地面席

METAR RCKH 021900Z 36007KT 330V030 9999 FEW015 BKN045 BKN060 17/12 Q1018 NOSIG RMK A3006=

站台狀態:Online
最後更新:2021-12-03 03:00:01